Billings, MT

1:14 PM MST on December 02, 2016 (GMT -0700)
Yellowstone RV Campground | | Change Station

Elev 3120 ft 45.76 °N, 108.48 °W | Updated 19 seconds ago

Partly Cloudy
Partly Cloudy
42.8 °F
Feels Like 39 °F
N
5.6
Wind Variable Wind from WNW
Gusts 7.4 mph

Today
High -- | Low -- °F
--% Chance of Precip.
Yesterday
High -- | Low -- °F
Precip. -- in
Pressure 30.21 in
Visibility 10.0 miles
Clouds Few 4000 ft
Few 8500 ft
Windchill 39 °F
Dew Point 18 °F
Humidity 36%
Rainfall 0.00 in
Snow Depth Not available.
7:36 AM 4:30 PM
Waxing Crescent, 10% visible
METAR KBIL 021953Z 24012G15KT 10SM FEW040 FEW085 04/M07 A3013 RMK AO2 SLP229 T00441072
Pressure 30.21 in
Visibility 10.0 miles
Clouds Few 4000 ft
Few 8500 ft
Windchill 39 °F
Dew Point 18 °F
Humidity 36%
Rainfall 0.00 in
Snow Depth Not available.
7:36 AM 4:30 PM
Waxing Crescent, 10% visible
METAR KBIL 021953Z 24012G15KT 10SM FEW040 FEW085 04/M07 A3013 RMK AO2 SLP229 T00441072

10-Day Weather Forecast

Almanac

Astronomy

Dec. 02, 2016 Rise Set
Actual Time
Civil Twilight
Nautical Twilight
Astronomical Twilight
Moon
Length of Visible Light
Length of Day
Tomorrow will be .
, % of the Moon is Illuminated

Today's Extremes

State Highs State Lows

Community

WunderPhotos

Upload Photos

1,955,348 photos uploaded!

WunderBlog® & News

Nearby

Air Quality

  Air Quality AQ Index Pollutant
Not available.

Snow Depth

Station Depth Elevation

Earthquake Activity

City Distance Mag. Time & Date
Minimum magnitude displayed is 2.5.

Coastal Water Temperatures

Place Temperature

Stations

Nearby Weather Stations

Station Location Temp. Windchill Dew Point Humidity Wind Precip. Elev Updated Type
                   

Watches & Warnings

There are currently no watches in effect.